Weather History for Rugby, ND

Change the Weather History Date:

Monday, December 10, 2012

  Actual Average Record
Temperature  
Mean Temperature 8 °F -  
Max Temperature 17 °F 22 °F 55 °F (1987)
Min Temperature 0 °F 1 °F -30 °F (1977)
Degree Days  
Heating Degree Days 56    
Moisture  
Dew Point 2 °F    
Average Humidity 81    
Maximum Humidity 92    
Minimum Humidity 72    
Precipitation  
Precipitation 0.00 in - - ()
Sea Level Pressure  
Sea Level Pressure 29.73 in    
Wind  
Wind Speed 11 mph (SW)    
Max Wind Speed 16 mph    
Max Gust Speed 22 mph    
Visibility 10 miles    
Events Snow    
Averages and records for this station are not official NWS values.
T = Trace of Precipitation, MM = Missing Value Source: NWS Daily Summary

Daily Weather History Graph

Daily Weather History Graph

Search for Another Location

Airport:

Trip Planner

Search our weather history database for the weather conditions in past years. The results will help you decide how hot, cold, wet, or windy it might be!

Date:

Astronomy

Dec. 10, 2012 Rise Set
Actual Time 8:21 AM CST 4:45 PM CST
Civil Twilight 7:44 AM CST 5:21 PM CST
Nautical Twilight 7:04 AM CST 6:01 PM CST
Astronomical Twilight 6:26 AM CST 6:39 PM CST
Moon 4:57 AM CST (12/10) 2:43 PM CST (12/10)
Length of Visible Light 9h 37m
Length of Day
8h 24m
Waning Crescent, 10% of the Moon is Illuminated
Dec 10
Waning Crescent
Dec 13
New
Dec 19
First Quarter
Dec 28
Full
Jan 4
Last Quarter

Hourly Weather History & Observations

Time (CST) Temp. Windchill Dew Point Humidity Pressure Visibility Wind Dir Wind Speed Gust Speed Precip Events Conditions
12:15 AM 1.4 °F -12.5 °F -2.2 °F 85% 30.02 in 10.0 mi South 8.1 mph - N/A   Mostly Cloudy
12:35 AM 3.2 °F -13.1 °F -0.4 °F 85% 30.00 in 10.0 mi South 11.5 mph - N/A   Mostly Cloudy
12:55 AM 3.2 °F -13.1 °F -0.4 °F 85% 29.99 in 10.0 mi South 11.5 mph - N/A   Overcast
1:15 AM 5.0 °F -10.8 °F -0.4 °F 78% 29.96 in 10.0 mi South 11.5 mph - N/A   Mostly Cloudy
1:35 AM 3.2 °F -13.9 °F -0.4 °F 85% 29.95 in 10.0 mi South 12.7 mph - N/A   Partly Cloudy
1:55 AM 3.2 °F -13.1 °F -0.4 °F 85% 29.93 in 10.0 mi South 11.5 mph - N/A   Clear
2:15 AM 5.0 °F -10.8 °F -0.4 °F 78% 29.90 in 10.0 mi South 11.5 mph 17.3 mph N/A   Clear
2:55 AM 3.2 °F -13.1 °F -2.2 °F 78% 29.88 in 10.0 mi South 11.5 mph - N/A   Clear
3:15 AM 1.4 °F -14.5 °F -2.2 °F 85% 29.87 in 10.0 mi South 10.4 mph - N/A   Clear
3:35 AM 1.4 °F -14.5 °F -2.2 °F 85% 29.86 in 10.0 mi South 10.4 mph - N/A   Clear
3:55 AM 1.4 °F -16.1 °F -2.2 °F 85% 29.84 in 10.0 mi South 12.7 mph 18.4 mph N/A   Clear
4:15 AM 1.4 °F -16.1 °F -2.2 °F 85% 29.82 in 10.0 mi South 12.7 mph 17.3 mph N/A   Clear
4:35 AM 1.4 °F -15.3 °F -2.2 °F 85% 29.81 in 10.0 mi South 11.5 mph - N/A   Clear
4:55 AM 1.4 °F -15.3 °F -2.2 °F 85% 29.80 in 10.0 mi South 11.5 mph 17.3 mph N/A   Clear
5:15 AM 1.4 °F -15.3 °F -2.2 °F 85% 29.78 in 10.0 mi SSE 11.5 mph - N/A   Clear
5:35 AM 1.4 °F -15.3 °F -2.2 °F 85% 29.77 in 10.0 mi SSE 11.5 mph - N/A   Clear
5:55 AM 3.2 °F -12.2 °F -2.2 °F 78% 29.75 in 10.0 mi South 10.4 mph - N/A   Clear
6:15 AM 3.2 °F -13.1 °F -2.2 °F 78% 29.75 in 10.0 mi South 11.5 mph - N/A   Clear
6:35 AM 5.0 °F -11.6 °F -0.4 °F 78% 29.73 in 10.0 mi South 12.7 mph - N/A   Clear
6:55 AM 5.0 °F -10.0 °F -0.4 °F 78% 29.73 in 10.0 mi South 10.4 mph - N/A   Clear
7:15 AM 5.0 °F -10.8 °F -0.4 °F 78% 29.73 in 10.0 mi South 11.5 mph - N/A   Clear
7:35 AM 5.0 °F -10.8 °F -0.4 °F 78% 29.71 in 10.0 mi South 11.5 mph - N/A   Clear
7:55 AM 5.0 °F -10.8 °F -0.4 °F 78% 29.71 in 10.0 mi South 11.5 mph - N/A   Clear
8:15 AM 6.8 °F -7.8 °F -0.4 °F 72% 29.70 in 10.0 mi South 10.4 mph - N/A   Clear
8:35 AM 6.8 °F -8.6 °F -0.4 °F 72% 29.70 in 10.0 mi South 11.5 mph 21.9 mph N/A   Clear
8:55 AM 6.8 °F -8.6 °F -0.4 °F 72% 29.69 in 10.0 mi South 11.5 mph - N/A   Scattered Clouds
9:15 AM 6.8 °F -9.3 °F -0.4 °F 72% 29.69 in 10.0 mi SSW 12.7 mph - N/A   Clear
9:35 AM 8.6 °F -6.3 °F 1.4 °F 73% 29.68 in 10.0 mi SSW 11.5 mph 17.3 mph N/A   Partly Cloudy
9:55 AM 8.6 °F -7.0 °F 1.4 °F 73% 29.68 in 10.0 mi SSW 12.7 mph 18.4 mph N/A   Partly Cloudy
10:15 AM 8.6 °F -8.9 °F 1.4 °F 73% 29.67 in 10.0 mi SSW 16.1 mph - N/A   Clear
10:35 AM 8.6 °F -8.9 °F 1.4 °F 73% 29.67 in 10.0 mi SSW 16.1 mph - N/A   Clear
10:55 AM 10.4 °F -5.4 °F 3.2 °F 73% 29.67 in 10.0 mi SSW 13.8 mph - N/A   Clear
11:15 AM 10.4 °F -3.3 °F 5.0 °F 79% 29.67 in 10.0 mi SW 10.4 mph - N/A   Scattered Clouds
11:35 AM 12.2 °F -1.0 °F 6.8 °F 79% 29.66 in 7.0 mi SW 10.4 mph - N/A Snow Light Snow
11:55 AM 14.0 °F 2.0 °F 8.6 °F 79% 29.66 in 5.0 mi SW 9.2 mph - N/A Snow Light Snow
12:15 PM 15.8 °F 2.1 °F 10.4 °F 79% 29.66 in 10.0 mi WSW 12.7 mph - N/A   Mostly Cloudy
12:35 PM 15.8 °F 2.1 °F 10.4 °F 79% 29.65 in 10.0 mi WSW 12.7 mph - N/A   Mostly Cloudy
12:55 PM 15.8 °F 2.7 °F 10.4 °F 79% 29.64 in 10.0 mi WSW 11.5 mph - N/A   Partly Cloudy
1:15 PM 15.8 °F 4.2 °F 10.4 °F 79% 29.64 in 10.0 mi WSW 9.2 mph - N/A   Clear
1:35 PM 15.8 °F 5.1 °F 10.4 °F 79% 29.63 in 10.0 mi WSW 8.1 mph - N/A   Clear
1:55 PM 15.8 °F 4.2 °F 10.4 °F 79% 29.63 in 10.0 mi WSW 9.2 mph - N/A   Clear
2:15 PM 17.6 °F 5.7 °F 10.4 °F 73% 29.63 in 10.0 mi West 10.4 mph - N/A   Clear
2:35 PM 17.6 °F 5.0 °F 10.4 °F 73% 29.63 in 10.0 mi WNW 11.5 mph - N/A   Clear
2:55 PM 17.6 °F 5.7 °F 10.4 °F 73% 29.64 in 10.0 mi WNW 10.4 mph - N/A   Clear
3:15 PM 15.8 °F 2.1 °F 10.4 °F 79% 29.64 in 10.0 mi WNW 12.7 mph - N/A   Clear
3:35 PM 15.8 °F 5.1 °F 10.4 °F 79% 29.65 in 10.0 mi NW 8.1 mph - N/A   Partly Cloudy
3:55 PM 14.0 °F 0.5 °F 8.6 °F 79% 29.65 in 10.0 mi NW 11.5 mph - N/A   Clear
4:15 PM 14.0 °F 0.5 °F 8.6 °F 79% 29.66 in 10.0 mi NW 11.5 mph - N/A   Clear
4:35 PM 10.4 °F -4.1 °F 6.8 °F 85% 29.66 in 10.0 mi WNW 11.5 mph - N/A   Clear
4:55 PM 10.4 °F -5.4 °F 6.8 °F 85% 29.67 in 10.0 mi WNW 13.8 mph - N/A   Clear
5:15 PM 8.6 °F -3.7 °F 5.0 °F 85% 29.68 in 10.0 mi West 8.1 mph - N/A   Clear
5:35 PM 6.8 °F -4.8 °F 3.2 °F 85% 29.68 in 10.0 mi WNW 6.9 mph - N/A   Clear
5:55 PM 6.8 °F -7.8 °F 5.0 °F 92% 29.69 in 10.0 mi WNW 10.4 mph - N/A   Clear
6:15 PM 5.0 °F -9.1 °F 1.4 °F 85% 29.69 in 10.0 mi WNW 9.2 mph - N/A   Clear
6:35 PM 3.2 °F -10.3 °F 1.4 °F 92% 29.69 in 10.0 mi WNW 8.1 mph - N/A   Clear
6:55 PM 5.0 °F -9.1 °F 1.4 °F 85% 29.70 in 10.0 mi West 9.2 mph - N/A   Clear
7:15 PM 5.0 °F -9.1 °F 1.4 °F 85% 29.69 in 10.0 mi WNW 9.2 mph - N/A   Clear
7:35 PM 5.0 °F -10.0 °F 1.4 °F 85% 29.70 in 10.0 mi WNW 10.4 mph - N/A   Clear
7:55 PM 3.2 °F -12.2 °F -0.4 °F 85% 29.70 in 10.0 mi West 10.4 mph - N/A   Clear
8:15 PM 1.4 °F -13.5 °F -0.4 °F 92% 29.70 in 10.0 mi WNW 9.2 mph - N/A   Clear
8:35 PM 1.4 °F -13.5 °F -0.4 °F 92% 29.69 in 10.0 mi WNW 9.2 mph - N/A   Clear
8:55 PM 6.8 °F -9.3 °F 1.4 °F 79% 29.69 in 10.0 mi WNW 12.7 mph - N/A   Clear
9:15 PM 5.0 °F -11.6 °F 1.4 °F 85% 29.70 in 10.0 mi WNW 12.7 mph - N/A   Clear
9:35 PM 5.0 °F -10.0 °F -0.4 °F 78% 29.70 in 10.0 mi WNW 10.4 mph - N/A   Clear
9:55 PM 1.4 °F -14.5 °F -0.4 °F 92% 29.71 in 10.0 mi WNW 10.4 mph - N/A   Clear
10:15 PM 1.4 °F -12.5 °F -2.2 °F 85% 29.70 in 10.0 mi West 8.1 mph - N/A   Clear
10:35 PM -0.4 °F -13.4 °F -2.2 °F 92% 29.70 in 10.0 mi West 6.9 mph - N/A   Clear
10:55 PM -0.4 °F -10.4 °F -2.2 °F 92% 29.71 in 10.0 mi West 4.6 mph - N/A   Scattered Clouds
11:15 PM 1.4 °F -9.9 °F -0.4 °F 92% 29.71 in 10.0 mi West 5.8 mph - N/A   Overcast
11:35 PM 5.0 °F -8.1 °F 1.4 °F 85% 29.71 in 10.0 mi WNW 8.1 mph - N/A Snow Light Snow
11:55 PM 6.8 °F -9.3 °F 3.2 °F 85% 29.71 in 9.0 mi NW 12.7 mph - N/A Snow Light Snow